createdAt,value
2022-09-27T00:03:30.391Z,1.23
2022-09-27T00:08:36.517Z,1.40
2022-09-27T00:13:38.135Z,1.55
2022-09-27T00:18:39.715Z,1.13
2022-09-27T00:23:41.741Z,1.05
2022-09-27T00:28:43.517Z,1.80
2022-09-27T00:33:45.178Z,1.58
2022-09-27T00:38:47.149Z,1.25
2022-09-27T00:43:55.273Z,1.15
2022-09-27T00:49:24.282Z,1.23
2022-09-27T00:54:28.718Z,1.80
2022-09-27T00:59:43.512Z,1.13
2022-09-27T01:04:46.313Z,0.88
2022-09-27T01:09:48.403Z,0.80
2022-09-27T01:15:00.510Z,1.23
2022-09-27T01:20:33.349Z,1.00
2022-09-27T01:25:50.255Z,1.23
2022-09-27T01:31:07.884Z,1.17
2022-09-27T01:36:18.032Z,0.95
2022-09-27T01:41:28.156Z,1.15
2022-09-27T01:46:55.470Z,1.42
2022-09-27T01:52:22.223Z,1.02
2022-09-27T01:57:30.299Z,0.82
2022-09-27T02:02:36.857Z,1.15
2022-09-27T02:08:05.137Z,1.30
2022-09-27T02:18:32.760Z,0.95
2022-09-27T02:23:50.516Z,1.02
2022-09-27T02:29:07.356Z,0.85
2022-09-27T02:34:22.534Z,0.90
2022-09-27T02:39:24.978Z,0.90
2022-09-27T02:44:38.338Z,0.77
2022-09-27T02:50:14.887Z,0.90
2022-09-27T02:55:51.010Z,1.08
2022-09-27T03:02:00.428Z,0.70
2022-09-27T03:07:08.648Z,0.68
2022-09-27T03:12:21.369Z,0.80
2022-09-27T03:17:23.539Z,0.55
2022-09-27T03:22:38.196Z,0.70
2022-09-27T03:27:40.136Z,0.77
2022-09-27T03:32:45.708Z,0.77
2022-09-27T03:38:07.054Z,0.40
2022-09-27T03:43:08.691Z,0.80
2022-09-27T03:48:10.595Z,0.57
2022-09-27T03:53:12.355Z,0.30
2022-09-27T03:58:14.429Z,0.80
2022-09-27T04:03:19.880Z,0.50
2022-09-27T04:08:47.476Z,0.32
2022-09-27T04:13:50.384Z,0.70
2022-09-27T04:18:54.010Z,0.85
2022-09-27T04:24:14.295Z,0.80
2022-09-27T04:29:25.815Z,0.65
2022-09-27T04:34:47.932Z,0.70
2022-09-27T04:39:56.530Z,0.93
2022-09-27T04:44:58.210Z,0.60
2022-09-27T04:50:00.229Z,0.80
2022-09-27T04:55:01.793Z,0.45
2022-09-27T05:00:06.841Z,0.65
2022-09-27T05:05:09.026Z,1.33
2022-09-27T05:10:13.991Z,1.23
2022-09-27T05:15:17.113Z,0.82
2022-09-27T05:20:54.051Z,2.20
2022-09-27T05:26:06.042Z,0.90
2022-09-27T05:31:11.115Z,0.95
2022-09-27T05:36:13.533Z,0.88
2022-09-27T05:41:15.908Z,0.68
2022-09-27T05:46:17.886Z,1.20
2022-09-27T05:51:21.865Z,1.00
2022-09-27T05:56:25.089Z,0.70
2022-09-27T06:01:45.435Z,0.75
2022-09-27T06:07:20.549Z,1.55
2022-09-27T06:12:22.377Z,0.90
2022-09-27T06:17:24.274Z,2.92
2022-09-27T06:22:26.086Z,0.90
2022-09-27T06:27:33.543Z,0.82
2022-09-27T06:32:40.660Z,1.15
2022-09-27T06:37:53.256Z,1.00
2022-09-27T06:43:09.260Z,0.70
2022-09-27T06:48:30.139Z,1.08
2022-09-27T06:53:51.324Z,0.90
2022-09-27T06:59:12.368Z,1.40
2022-09-27T07:04:16.846Z,0.85
2022-09-27T07:09:50.940Z,1.58
2022-09-27T07:14:53.379Z,1.85
2022-09-27T07:19:57.671Z,0.70
2022-09-27T07:25:02.598Z,0.70
2022-09-27T07:30:07.275Z,0.77
2022-09-27T07:35:10.344Z,2.05
2022-09-27T07:40:12.429Z,1.30
2022-09-27T07:45:14.283Z,0.85
2022-09-27T07:50:39.221Z,1.52
2022-09-27T07:56:09.701Z,1.90
2022-09-27T08:01:12.740Z,1.70
2022-09-27T08:06:14.515Z,1.83
2022-09-27T08:11:18.840Z,1.27
2022-09-27T08:16:23.287Z,1.42
2022-09-27T08:21:59.045Z,2.30
2022-09-27T08:27:12.037Z,2.55
2022-09-27T08:32:28.009Z,1.00
2022-09-27T08:37:30.079Z,1.48
2022-09-27T08:42:48.244Z,1.75
2022-09-27T08:48:00.338Z,0.60
2022-09-27T08:53:14.605Z,0.60
2022-09-27T08:58:35.900Z,0.93
2022-09-27T09:03:55.691Z,1.10
2022-09-27T09:09:17.878Z,1.17
2022-09-27T09:14:58.548Z,1.20
2022-09-27T09:20:19.102Z,0.95
2022-09-27T09:26:10.884Z,1.25
2022-09-27T09:31:27.524Z,0.90
2022-09-27T09:36:50.339Z,1.35
2022-09-27T09:42:10.197Z,1.73
2022-09-27T09:47:44.313Z,2.22
2022-09-27T09:52:51.779Z,2.53
2022-09-27T09:58:04.081Z,1.42
2022-09-27T10:03:15.134Z,1.30
2022-09-27T10:08:24.325Z,1.60
2022-09-27T10:13:41.485Z,1.58
2022-09-27T10:18:49.660Z,2.65
2022-09-27T10:24:04.703Z,1.23
2022-09-27T10:29:37.721Z,0.97
2022-09-27T10:34:43.792Z,2.63
2022-09-27T10:39:53.732Z,1.20
2022-09-27T10:44:56.474Z,1.05
2022-09-27T10:50:08.038Z,1.30
2022-09-27T10:55:40.296Z,1.13
2022-09-27T11:00:44.372Z,1.00
2022-09-27T11:05:46.327Z,0.95
2022-09-27T11:11:24.764Z,1.98
2022-09-27T11:16:43.520Z,2.53
2022-09-27T11:22:08.709Z,1.92
2022-09-27T11:27:25.881Z,1.85
2022-09-27T11:32:57.896Z,2.28
2022-09-27T11:38:47.881Z,1.92
2022-09-27T11:44:21.256Z,1.48
2022-09-27T11:49:45.892Z,2.22
2022-09-27T11:55:14.669Z,2.05
2022-09-27T12:00:19.854Z,2.85
2022-09-27T12:05:43.523Z,1.05
2022-09-27T12:11:00.150Z,1.30
2022-09-27T12:16:16.661Z,1.50
2022-09-27T12:21:20.611Z,1.70
2022-09-27T12:26:42.811Z,1.75
2022-09-27T12:32:20.222Z,1.65
2022-09-27T12:37:44.114Z,1.95
2022-09-27T12:42:54.962Z,1.27
2022-09-27T12:48:21.453Z,2.13
2022-09-27T12:53:30.164Z,1.42
2022-09-27T12:59:04.703Z,1.50
2022-09-27T13:04:30.162Z,1.25
2022-09-27T13:10:05.110Z,0.90
2022-09-27T13:15:20.675Z,1.10
2022-09-27T13:20:28.485Z,1.07
2022-09-27T13:25:54.264Z,1.30
2022-09-27T13:31:16.377Z,1.10
2022-09-27T13:36:30.572Z,1.10
2022-09-27T13:41:46.636Z,1.10
2022-09-27T13:47:26.078Z,1.20
2022-09-27T13:52:35.882Z,1.20
2022-09-27T13:58:03.734Z,1.00
2022-09-27T14:03:20.637Z,0.95
2022-09-27T14:08:36.895Z,0.80
2022-09-27T14:13:40.929Z,1.00
2022-09-27T14:18:53.894Z,1.35
2022-09-27T14:24:22.463Z,1.63
2022-09-27T14:29:26.952Z,1.50
2022-09-27T14:34:29.227Z,1.15
2022-09-27T14:39:35.801Z,1.15
2022-09-27T14:44:45.547Z,1.00
2022-09-27T14:49:57.865Z,1.15
2022-09-27T14:55:08.706Z,1.30
2022-09-27T15:00:32.145Z,1.48
2022-09-27T15:05:35.681Z,1.77
2022-09-27T15:10:39.163Z,1.15
2022-09-27T15:15:41.773Z,1.17
2022-09-27T15:20:53.501Z,1.33
2022-09-27T15:26:08.901Z,1.90
2022-09-27T15:31:11.247Z,1.38
2022-09-27T15:36:15.802Z,1.38
2022-09-27T15:41:20.388Z,1.92
2022-09-27T15:46:22.195Z,2.10
2022-09-27T15:51:40.644Z,1.60
2022-09-27T15:56:42.705Z,2.17
2022-09-27T16:01:45.423Z,1.75
2022-09-27T16:06:50.654Z,1.35
2022-09-27T16:11:52.415Z,1.77
2022-09-27T16:16:59.337Z,1.65
2022-09-27T16:22:03.597Z,1.75
2022-09-27T16:27:05.217Z,1.80
2022-09-27T16:32:08.426Z,3.17
2022-09-27T16:37:11.554Z,2.90
2022-09-27T16:42:14.566Z,3.10
2022-09-27T16:47:16.557Z,3.45
2022-09-27T16:52:18.559Z,2.80
2022-09-27T16:57:20.187Z,2.45
2022-09-27T17:02:22.543Z,2.13
2022-09-27T17:07:25.549Z,2.03
2022-09-27T17:12:27.334Z,3.13
2022-09-27T17:17:28.908Z,4.22
2022-09-27T17:22:31.594Z,2.50
2022-09-27T17:27:33.201Z,1.90
2022-09-27T17:32:36.017Z,1.45
2022-09-27T17:37:37.715Z,3.38
2022-09-27T17:42:39.426Z,2.70
2022-09-27T17:47:59.721Z,4.35
2022-09-27T17:53:01.410Z,4.18
2022-09-27T17:58:03.999Z,2.40
2022-09-27T22:44:08.634Z,1.92
2022-09-27T22:49:11.234Z,2.00
2022-09-27T22:54:17.134Z,1.70
2022-09-27T22:59:22.847Z,2.17
2022-09-27T23:04:24.882Z,1.58
2022-09-27T23:09:26.690Z,1.15
2022-09-27T23:14:29.895Z,1.23
2022-09-27T23:19:34.579Z,1.08
2022-09-27T23:24:36.180Z,1.02
2022-09-27T23:29:37.895Z,0.68
2022-09-27T23:34:39.450Z,0.90
2022-09-27T23:39:41.083Z,1.10
2022-09-27T23:44:43.767Z,0.93
2022-09-27T23:49:45.381Z,0.70
2022-09-27T23:54:47.183Z,0.77
2022-09-27T23:59:48.747Z,1.35
